Time;durP1;ratioP1;P1;durP2;ratioP2;P2;SDS_P1;SDS_P2;PMS_P1;PMS_P2;Temp;Humidity;BMP_temperature;BMP_pressure;BME280_temperature;BME280_humidity;BME280_pressure;Samples;Min_cycle;Max_cycle;Signal;HPM_P1;HPM_P2
2022/10/18 00:01:51;;;;;;;;;;;;;;;;;;5036444;28;7017;-61
2022/10/18 00:04:17;;;;;;;;;;;;;;;;;;5035900;28;7003;-61
2022/10/18 00:06:43;;;;;;;;;;;;;;;;;;5036009;28;7192;-61
2022/10/18 00:09:08;;;;;;;;;;;;;;;;;;5034332;28;8700;-61
2022/10/18 00:11:34;;;;;;;;;;;;;;;;;;5035496;28;7235;-61
2022/10/18 00:14:00;;;;;;;;;;;;;;;;;;5035381;28;6995;-61
2022/10/18 00:16:26;;;;;;;;;;;;;;;;;;5035658;28;7136;-61
2022/10/18 00:18:52;;;;;;;;;;;;;;;;;;5036448;28;6863;-61
2022/10/18 00:21:19;;;;;;;;;;;;;;;;;;5035624;28;7016;-61
2022/10/18 00:23:46;;;;;;;;;;;;;;;;;;5035204;28;6950;-61
2022/10/18 00:26:16;;;;;;;;;;;;;;;;;;5036087;28;7087;-61
2022/10/18 00:28:43;;;;;;;;;;;;;;;;;;5035371;28;7053;-61
2022/10/18 00:31:13;;;;;;;;;;;;;;;;;;5035405;28;6970;-61
2022/10/18 00:33:39;;;;;;;;;;;;;;;;;;5035859;28;7297;-61
2022/10/18 00:36:06;;;;;;;;;;;;;;;;;;5035196;28;7166;-61
2022/10/18 00:38:31;;;;;;;;;;;;;;;;;;5035283;28;7400;-61
2022/10/18 00:40:57;;;;;;;;;;;;;;;;;;5035227;28;7193;-61
2022/10/18 00:43:23;;;;;;;;;;;;;;;;;;5035224;28;7119;-61
2022/10/18 00:45:48;;;;;;;;;;;;;;;;;;5035128;28;7116;-61
2022/10/18 00:48:16;;;;;;;;;;;;;;;;;;5035112;28;7358;-61
2022/10/18 00:50:42;;;;;;;;;;;;;;;;;;5035150;28;7358;-61
2022/10/18 00:53:14;;;;;;;;;;;;;;;;;;5035102;28;6960;-61
2022/10/18 00:55:39;;;;;;;;;;;;;;;;;;5035475;28;6986;-61
2022/10/18 00:58:06;;;;;;;;;;;;;;;;;;5035056;28;6956;-61
2022/10/18 01:00:33;;;;;;;;;;;;;;;;;;5034450;28;7175;-61
2022/10/18 01:02:59;;;;;;;;;;;;;;;;;;5035050;28;7360;-61
2022/10/18 01:05:25;;;;;;;;;;;;;;;;;;5034454;28;7216;-61
2022/10/18 01:08:05;;;;;;;;;;;;;;;;;;5034648;28;7177;-61
2022/10/18 01:10:49;;;;;;;;;;;;;;;;;;5034760;28;7187;-61
2022/10/18 01:13:30;;;;;;;;;;;;;;;;;;5034743;28;7149;-61
2022/10/18 01:16:09;;;;;;;;;;;;;;;;;;5034791;28;7210;-61
2022/10/18 01:18:41;;;;;;;;;;;;;;;;;;5034726;28;6945;-61
2022/10/18 01:21:07;;;;;;;;;;;;;;;;;;5034687;28;7155;-61
2022/10/18 01:23:32;;;;;;;;;;;;;;;;;;5034881;28;7045;-61
2022/10/18 01:26:00;;;;;;;;;;;;;;;;;;5034388;28;7467;-61
2022/10/18 01:28:49;;;;;;;;;;;;;;;;;;5034914;28;7134;-61
2022/10/18 01:31:20;;;;;;;;;;;;;;;;;;5035463;28;7203;-61
2022/10/18 01:33:50;;;;;;;;;;;;;;;;;;5035594;28;7389;-61
2022/10/18 01:36:24;;;;;;;;;;;;;;;;;;5035084;28;7071;-61
2022/10/18 01:38:52;;;;;;;;;;;;;;;;;;5034632;28;6971;-61
2022/10/18 01:41:22;;;;;;;;;;;;;;;;;;5035190;28;7211;-61
2022/10/18 01:43:51;;;;;;;;;;;;;;;;;;5034165;28;6975;-61
2022/10/18 01:46:21;;;;;;;;;;;;;;;;;;5033184;28;8438;-61
2022/10/18 01:48:47;;;;;;;;;;;;;;;;;;5034407;28;7170;-61
2022/10/18 01:51:12;;;;;;;;;;;;;;;;;;5034413;28;7213;-61
2022/10/18 01:53:38;;;;;;;;;;;;;;;;;;5034796;28;7016;-61
2022/10/18 01:56:06;;;;;;;;;;;;;;;;;;5034346;28;6940;-61
2022/10/18 01:58:48;;;;;;;;;;;;;;;;;;5034499;28;7131;-61
2022/10/18 02:01:24;;;;;;;;;;;;;;;;;;5034745;28;7535;-61
2022/10/18 02:03:55;;;;;;;;;;;;;;;;;;5033965;28;7049;-61
2022/10/18 02:06:28;;;;;;;;;;;;;;;;;;5035206;28;6952;-61
2022/10/18 02:09:00;;;;;;;;;;;;;;;;;;5034079;28;7075;-61
2022/10/18 02:11:29;;;;;;;;;;;;;;;;;;5034244;28;6873;-61
2022/10/18 02:14:10;;;;;;;;;;;;;;;;;;5034110;28;7237;-61
2022/10/18 02:16:44;;;;;;;;;;;;;;;;;;5034973;28;6930;-61
2022/10/18 02:19:34;;;;;;;;;;;;;;;;;;5034208;28;7139;-61
2022/10/18 02:22:00;;;;;;;;;;;;;;;;;;5033800;28;7092;-61
2022/10/18 02:24:31;;;;;;;;;;;;;;;;;;5033832;28;7128;-61
2022/10/18 02:26:57;;;;;;;;;;;;;;;;;;5034152;28;6959;-61
2022/10/18 02:29:22;;;;;;;;;;;;;;;;;;5034020;28;7197;-61
2022/10/18 02:31:53;;;;;;;;;;;;;;;;;;5034654;28;7124;-61
2022/10/18 02:34:24;;;;;;;;;;;;;;;;;;5033724;28;6958;-61
2022/10/18 02:36:57;;;;;;;;;;;;;;;;;;5035108;28;6955;-61
2022/10/18 02:39:29;;;;;;;;;;;;;;;;;;5037228;28;6984;-61
2022/10/18 02:41:57;;;;;;;;;;;;;;;;;;5037410;28;7180;-61
2022/10/18 02:44:23;;;;;;;;;;;;;;;;;;5037526;28;6941;-61
2022/10/18 02:46:48;;;;;;;;;;;;;;;;;;5037384;28;7017;-61
2022/10/18 02:49:15;;;;;;;;;;;;;;;;;;5037258;28;7040;-61
2022/10/18 02:51:41;;;;;;;;;;;;;;;;;;5037027;28;6994;-61
2022/10/18 02:54:07;;;;;;;;;;;;;;;;;;5037093;28;6951;-61
2022/10/18 02:56:33;;;;;;;;;;;;;;;;;;5037316;28;7106;-61
2022/10/18 02:58:59;;;;;;;;;;;;;;;;;;5037049;28;7230;-61
2022/10/18 03:01:25;;;;;;;;;;;;;;;;;;5036796;28;7259;-61
2022/10/18 03:03:50;;;;;;;;;;;;;;;;;;5037053;28;7035;-61
2022/10/18 03:06:16;;;;;;;;;;;;;;;;;;5037002;28;7423;-61
2022/10/18 03:08:41;;;;;;;;;;;;;;;;;;5036772;28;6991;-61
2022/10/18 03:11:07;;;;;;;;;;;;;;;;;;5036940;28;7056;-61
2022/10/18 03:13:35;;;;;;;;;;;;;;;;;;5036841;28;7170;-61
2022/10/18 03:16:00;;;;;;;;;;;;;;;;;;5036600;28;7080;-61
2022/10/18 03:18:26;;;;;;;;;;;;;;;;;;5037343;28;6956;-61
2022/10/18 03:20:52;;;;;;;;;;;;;;;;;;5036865;28;7313;-61
2022/10/18 03:23:17;;;;;;;;;;;;;;;;;;5036321;28;7005;-61
2022/10/18 03:25:43;;;;;;;;;;;;;;;;;;5037500;28;7318;-61
2022/10/18 03:28:09;;;;;;;;;;;;;;;;;;5036446;28;6929;-61
2022/10/18 03:30:34;;;;;;;;;;;;;;;;;;5036428;28;7039;-61
2022/10/18 03:33:00;;;;;;;;;;;;;;;;;;5036587;28;6988;-61
2022/10/18 03:35:25;;;;;;;;;;;;;;;;;;5036090;28;7040;-61
2022/10/18 03:37:51;;;;;;;;;;;;;;;;;;5036511;28;7019;-61
2022/10/18 03:40:16;;;;;;;;;;;;;;;;;;5036078;28;7197;-61
2022/10/18 03:42:42;;;;;;;;;;;;;;;;;;5036335;28;7047;-61
2022/10/18 03:45:08;;;;;;;;;;;;;;;;;;5036906;28;7185;-61
2022/10/18 03:47:34;;;;;;;;;;;;;;;;;;5036918;28;7363;-61
2022/10/18 03:49:59;;;;;;;;;;;;;;;;;;5036630;28;7134;-61
2022/10/18 03:52:25;;;;;;;;;;;;;;;;;;5035898;28;7101;-61
2022/10/18 03:54:50;;;;;;;;;;;;;;;;;;5035801;28;6931;-61
2022/10/18 03:57:16;;;;;;;;;;;;;;;;;;5036006;28;7153;-61
2022/10/18 03:59:41;;;;;;;;;;;;;;;;;;5035970;28;7203;-61
2022/10/18 04:02:07;;;;;;;;;;;;;;;;;;5036009;28;6936;-61
2022/10/18 04:04:32;;;;;;;;;;;;;;;;;;5035615;28;6945;-61
2022/10/18 04:06:58;;;;;;;;;;;;;;;;;;5035994;28;7081;-61
2022/10/18 04:09:23;;;;;;;;;;;;;;;;;;5035452;28;6933;-61
2022/10/18 04:11:49;;;;;;;;;;;;;;;;;;5035918;28;7263;-61
2022/10/18 04:14:15;;;;;;;;;;;;;;;;;;5035392;28;6819;-61
2022/10/18 04:16:40;;;;;;;;;;;;;;;;;;5035402;28;7007;-61
2022/10/18 04:19:06;;;;;;;;;;;;;;;;;;5035320;28;7173;-61
2022/10/18 04:21:31;;;;;;;;;;;;;;;;;;5035619;28;7524;-61
2022/10/18 04:23:57;;;;;;;;;;;;;;;;;;5034963;28;6990;-61
2022/10/18 04:26:22;;;;;;;;;;;;;;;;;;5035572;28;7149;-61
2022/10/18 04:28:48;;;;;;;;;;;;;;;;;;5036334;28;7214;-61
2022/10/18 04:31:13;;;;;;;;;;;;;;;;;;5035961;28;6925;-61
2022/10/18 04:33:39;;;;;;;;;;;;;;;;;;5036133;28;7019;-61
2022/10/18 04:36:05;;;;;;;;;;;;;;;;;;5034987;28;7026;-61
2022/10/18 04:38:31;;;;;;;;;;;;;;;;;;5035304;28;7369;-61
2022/10/18 04:40:56;;;;;;;;;;;;;;;;;;5035255;28;7351;-61
2022/10/18 04:43:22;;;;;;;;;;;;;;;;;;5035346;28;7184;-61
2022/10/18 04:45:49;;;;;;;;;;;;;;;;;;5034882;28;7252;-61
2022/10/18 04:48:18;;;;;;;;;;;;;;;;;;5035133;28;7193;-61
2022/10/18 04:50:47;;;;;;;;;;;;;;;;;;5034796;28;7121;-61
2022/10/18 04:53:12;;;;;;;;;;;;;;;;;;5035109;28;7279;-61
2022/10/18 04:55:38;;;;;;;;;;;;;;;;;;5035444;28;7032;-61
2022/10/18 04:58:03;;;;;;;;;;;;;;;;;;5035604;28;7194;-61
2022/10/18 05:00:29;;;;;;;;;;;;;;;;;;5034089;28;7084;-61
2022/10/18 05:02:57;;;;;;;;;;;;;;;;;;5035601;28;7022;-61
2022/10/18 05:05:22;;;;;;;;;;;;;;;;;;5034618;28;7218;-61
2022/10/18 05:07:48;;;;;;;;;;;;;;;;;;5034960;28;7191;-61
2022/10/18 05:10:13;;;;;;;;;;;;;;;;;;5034493;28;7194;-61
2022/10/18 05:12:39;;;;;;;;;;;;;;;;;;5034524;28;6901;-61
2022/10/18 05:15:04;;;;;;;;;;;;;;;;;;5034846;28;7402;-61
2022/10/18 05:17:30;;;;;;;;;;;;;;;;;;5034801;28;7257;-61
2022/10/18 05:19:55;;;;;;;;;;;;;;;;;;5033284;28;8838;-61
2022/10/18 05:22:21;;;;;;;;;;;;;;;;;;5034427;28;6937;-61
2022/10/18 05:24:46;;;;;;;;;;;;;;;;;;5034681;28;7018;-61
2022/10/18 05:27:12;;;;;;;;;;;;;;;;;;5034695;28;6933;-61
2022/10/18 05:29:37;;;;;;;;;;;;;;;;;;5034881;28;7326;-61
2022/10/18 05:32:03;;;;;;;;;;;;;;;;;;5027983;28;6932;-61
2022/10/18 05:34:30;;;;;;;;;;;;;;;;;;5022169;28;7068;-61
2022/10/18 05:36:57;;;;;;;;;;;;;;;;;;5022514;28;7219;-61
2022/10/18 05:39:22;;;;;;;;;;;;;;;;;;5022316;28;7183;-61
2022/10/18 05:41:48;;;;;;;;;;;;;;;;;;5024491;28;7351;-61
2022/10/18 05:44:13;;;;;;;;;;;;;;;;;;5022757;28;6956;-61
2022/10/18 05:46:39;;;;;;;;;;;;;;;;;;5030877;28;7089;-61
2022/10/18 05:49:04;;;;;;;;;;;;;;;;;;5025346;28;7104;-61
2022/10/18 05:51:30;;;;;;;;;;;;;;;;;;5025996;28;7230;-61
2022/10/18 05:53:55;;;;;;;;;;;;;;;;;;5022601;28;7163;-61
2022/10/18 05:56:21;;;;;;;;;;;;;;;;;;5023588;28;7209;-61
2022/10/18 05:58:49;;;;;;;;;;;;;;;;;;5022202;28;7160;-61
2022/10/18 06:01:14;;;;;;;;;;;;;;;;;;5017125;28;6992;-61
2022/10/18 06:03:40;;;;;;;;;;;;;;;;;;5023134;28;7074;-61
2022/10/18 06:06:07;;;;;;;;;;;;;;;;;;5024234;28;7106;-61
2022/10/18 06:08:33;;;;;;;;;;;;;;;;;;5016742;28;6940;-61
2022/10/18 06:10:59;;;;;;;;;;;;;;;;;;5023316;28;7050;-61
2022/10/18 06:13:25;;;;;;;;;;;;;;;;;;5024744;28;7560;-61
2022/10/18 06:15:54;;;;;;;;;;;;;;;;;;5025772;28;7051;-61
2022/10/18 06:18:20;;;;;;;;;;;;;;;;;;5021959;28;7301;-61
2022/10/18 06:20:45;;;;;;;;;;;;;;;;;;5024406;28;7187;-61
2022/10/18 06:23:10;;;;;;;;;;;;;;;;;;5029692;28;6967;-61
2022/10/18 06:25:36;;;;;;;;;;;;;;;;;;5027791;28;7158;-61
2022/10/18 06:28:03;;;;;;;;;;;;;;;;;;5017742;28;7276;-61
2022/10/18 06:36:34;;;;;;;;;;;;;;;;;;5017701;28;7505;-61
2022/10/18 06:38:59;;;;;;;;;;;;;;;;;;5017293;28;7468;-61
2022/10/18 06:41:25;;;;;;;;;;;;;;;;;;5017283;28;7183;-61
2022/10/18 06:43:52;;;;;;;;;;;;;;;;;;5017353;28;7034;-61
2022/10/18 06:46:18;;;;;;;;;;;;;;;;;;5018154;28;7141;-61
2022/10/18 06:48:44;;;;;;;;;;;;;;;;;;5017354;28;6926;-61
2022/10/18 06:51:10;;;;;;;;;;;;;;;;;;5017150;28;7397;-61
2022/10/18 06:53:39;;;;;;;;;;;;;;;;;;5018179;28;7551;-61
2022/10/18 06:56:09;;;;;;;;;;;;;;;;;;5018395;28;7032;-61
2022/10/18 06:58:35;;;;;;;;;;;;;;;;;;5017414;28;7480;-61
2022/10/18 07:01:11;;;;;;;;;;;;;;;;;;5017412;28;7170;-61
2022/10/18 07:03:38;;;;;;;;;;;;;;;;;;5017356;28;6973;-61
2022/10/18 07:06:05;;;;;;;;;;;;;;;;;;5017352;28;6953;-61
2022/10/18 07:08:31;;;;;;;;;;;;;;;;;;5017252;28;7158;-61
2022/10/18 07:10:57;;;;;;;;;;;;;;;;;;5016939;28;7190;-61
2022/10/18 07:13:24;;;;;;;;;;;;;;;;;;5018070;28;7243;-61
2022/10/18 07:15:59;;;;;;;;;;;;;;;;;;5016997;28;7162;-61
2022/10/18 07:18:26;;;;;;;;;;;;;;;;;;5017887;28;7073;-61
2022/10/18 07:20:52;;;;;;;;;;;;;;;;;;5017090;28;7093;-61
2022/10/18 07:23:19;;;;;;;;;;;;;;;;;;5016674;28;7204;-61
2022/10/18 07:25:46;;;;;;;;;;;;;;;;;;5016971;28;7056;-61
2022/10/18 07:28:11;;;;;;;;;;;;;;;;;;5016927;28;7128;-61
2022/10/18 07:30:37;;;;;;;;;;;;;;;;;;5016746;28;6930;-61
2022/10/18 07:33:03;;;;;;;;;;;;;;;;;;5016583;28;7365;-61
2022/10/18 07:35:28;;;;;;;;;;;;;;;;;;5016505;28;7973;-61
2022/10/18 07:37:54;;;;;;;;;;;;;;;;;;5016808;28;7258;-61
2022/10/18 07:40:20;;;;;;;;;;;;;;;;;;5016605;28;7533;-61
2022/10/18 07:42:45;;;;;;;;;;;;;;;;;;5016272;28;7471;-61
2022/10/18 07:45:12;;;;;;;;;;;;;;;;;;5016653;28;7103;-61
2022/10/18 07:47:38;;;;;;;;;;;;;;;;;;5016535;28;7090;-61
2022/10/18 07:50:04;;;;;;;;;;;;;;;;;;5016124;28;7079;-61
2022/10/18 07:52:30;;;;;;;;;;;;;;;;;;5016432;28;7412;-61
2022/10/18 07:54:55;;;;;;;;;;;;;;;;;;5015930;28;8247;-61
2022/10/18 07:57:22;;;;;;;;;;;;;;;;;;5016319;28;7962;-61
2022/10/18 07:59:54;;;;;;;;;;;;;;;;;;5015816;28;7304;-61
2022/10/18 08:02:20;;;;;;;;;;;;;;;;;;5017193;28;7327;-61
2022/10/18 08:04:46;;;;;;;;;;;;;;;;;;5015827;28;8143;-61
2022/10/18 08:07:11;;;;;;;;;;;;;;;;;;5016088;28;7115;-61
2022/10/18 08:09:38;;;;;;;;;;;;;;;;;;5015984;28;7216;-61
2022/10/18 08:12:03;;;;;;;;;;;;;;;;;;5015774;28;6900;-61
2022/10/18 08:14:29;;;;;;;;;;;;;;;;;;5015855;28;7004;-61
2022/10/18 08:16:55;;;;;;;;;;;;;;;;;;5014648;28;8458;-61
2022/10/18 08:19:20;;;;;;;;;;;;;;;;;;5015422;28;6809;-61
2022/10/18 08:21:46;;;;;;;;;;;;;;;;;;5014803;28;7063;-61
2022/10/18 08:24:11;;;;;;;;;;;;;;;;;;5015901;28;7219;-61
2022/10/18 08:26:37;;;;;;;;;;;;;;;;;;5015761;28;6962;-61
2022/10/18 08:29:03;;;;;;;;;;;;;;;;;;5015622;28;7128;-61
2022/10/18 08:31:29;;;;;;;;;;;;;;;;;;5015586;28;7156;-61
2022/10/18 08:33:58;;;;;;;;;;;;;;;;;;5015092;28;7178;-61
2022/10/18 08:36:24;;;;;;;;;;;;;;;;;;5015447;28;7132;-61
2022/10/18 08:38:50;;;;;;;;;;;;;;;;;;5015139;28;6962;-61
2022/10/18 08:41:34;;;;;;;;;;;;;;;;;;5034490;23;7080;-83
2022/10/18 08:44:18;;;;;;;;;;;;;;;;;;5035511;28;7184;-84
2022/10/18 08:46:48;;;;;;;;;;;;;;;;;;5036062;28;7283;-84
2022/10/18 08:49:22;;;;;;;;;;;;;;;;;;5053849;28;8728;-83
2022/10/18 08:51:50;;;;;;;;;;;;;;;;;;5053035;28;7458;-82
2022/10/18 08:54:45;;;;;;;;;;;;;;;;;;5053456;28;7023;-84
2022/10/18 08:57:13;;;;;;;;;;;;;;;;;;5042521;28;8578;-83
2022/10/18 08:59:40;;;;;;;;;;;;;;;;;;5051765;28;7149;-85
2022/10/18 09:02:05;;;;;;;;;;;;;;;;;;5050135;28;8296;-83
2022/10/18 09:04:46;;;;;;;;;;;;;;;;;;5033283;28;8987;-84
2022/10/18 09:07:21;;;;;;;;;;;;;;;;;;5051501;28;7423;-85
2022/10/18 09:09:54;;;;;;;;;;;;;;;;;;5034345;28;8425;-84
2022/10/18 09:12:39;;;;;;;;;;;;;;;;;;5051051;28;7089;-84
2022/10/18 09:15:23;;;;;;;;;;;;;;;;;;5033849;28;8393;-84
2022/10/18 09:17:48;;;;;;;;;;;;;;;;;;5034694;28;7211;-83
2022/10/18 09:20:18;;;;;;;;;;;;;;;;;;5036473;28;8898;-83
2022/10/18 09:22:52;;;;;;;;;;;;;;;;;;5035866;28;7002;-82
2022/10/18 09:25:26;;;;;;;;;;;;;;;;;;5052030;28;7048;-85
2022/10/18 09:28:01;;;;;;;;;;;;;;;;;;5052057;28;8373;-77
2022/10/18 09:30:35;;;;;;;;;;;;;;;;;;5050626;28;7221;-75
2022/10/18 09:33:15;;;;;;;;;;;;;;;;;;5036159;28;7056;-84
2022/10/18 09:35:54;;;;;;;;;;;;;;;;;;5051085;28;7292;-86
2022/10/18 09:38:23;;;;;;;;;;;;;;;;;;5051010;28;8411;-84
2022/10/18 09:40:56;;;;;;;;;;;;;;;;;;5053702;28;8952;-82
2022/10/18 09:43:39;;;;;;;;;;;;;;;;;;5057568;28;8249;-77
2022/10/18 09:46:06;;;;;;;;;;;;;;;;;;5050923;28;7283;-84
2022/10/18 09:48:41;;;;;;;;;;;;;;;;;;5053928;28;8429;-85
2022/10/18 09:51:10;;;;;;;;;;;;;;;;;;5055043;28;8718;-86
2022/10/18 09:53:46;;;;;;;;;;;;;;;;;;5054200;28;8455;-85
2022/10/18 09:56:20;;;;;;;;;;;;;;;;;;5055323;28;7238;-86
2022/10/18 09:58:47;;;;;;;;;;;;;;;;;;5054625;28;8389;-82
2022/10/18 10:01:17;;;;;;;;;;;;;;;;;;5054143;28;8405;-84
2022/10/18 10:03:43;;;;;;;;;;;;;;;;;;5054846;28;6984;-83
2022/10/18 10:06:11;;;;;;;;;;;;;;;;;;5054191;28;8672;-85
2022/10/18 10:08:40;;;;;;;;;;;;;;;;;;5037917;28;7161;-85
2022/10/18 10:11:26;;;;;;;;;;;;;;;;;;5054837;28;8647;-84
2022/10/18 10:13:56;;;;;;;;;;;;;;;;;;5054068;28;8817;-85
2022/10/18 10:16:22;;;;;;;;;;;;;;;;;;5054127;28;8757;-84
2022/10/18 10:18:53;;;;;;;;;;;;;;;;;;5053749;28;6811;-86
2022/10/18 10:21:20;;;;;;;;;;;;;;;;;;5054451;28;8319;-85
2022/10/18 10:23:55;;;;;;;;;;;;;;;;;;5053347;28;7343;-85
2022/10/18 10:26:21;;;;;;;;;;;;;;;;;;5053933;28;8751;-85
2022/10/18 10:28:47;;;;;;;;;;;;;;;;;;5037140;28;7179;-85
2022/10/18 10:31:28;;;;;;;;;;;;;;;;;;5053303;28;8424;-85
2022/10/18 10:34:01;;;;;;;;;;;;;;;;;;5053301;28;8329;-85
2022/10/18 10:36:28;;;;;;;;;;;;;;;;;;5053414;28;9375;-82
2022/10/18 10:39:02;;;;;;;;;;;;;;;;;;5053755;28;8332;-82
2022/10/18 10:41:29;;;;;;;;;;;;;;;;;;5036283;28;8935;-83
2022/10/18 10:43:55;;;;;;;;;;;;;;;;;;5053741;28;8658;-83
2022/10/18 10:46:22;;;;;;;;;;;;;;;;;;5052963;28;7156;-83
2022/10/18 10:48:50;;;;;;;;;;;;;;;;;;5053152;28;8389;-83
2022/10/18 10:51:28;;;;;;;;;;;;;;;;;;5036763;28;7342;-84
2022/10/18 10:54:00;;;;;;;;;;;;;;;;;;5053422;28;8736;-84
2022/10/18 10:56:28;;;;;;;;;;;;;;;;;;5053093;28;8449;-84
2022/10/18 10:58:58;;;;;;;;;;;;;;;;;;5052593;28;7167;-83
2022/10/18 11:01:23;;;;;;;;;;;;;;;;;;5054301;28;8394;-79
2022/10/18 11:03:51;;;;;;;;;;;;;;;;;;5037668;28;8677;-84
2022/10/18 11:06:34;;;;;;;;;;;;;;;;;;5052883;28;7049;-82
2022/10/18 11:09:03;;;;;;;;;;;;;;;;;;5052653;28;8486;-82
2022/10/18 11:11:36;;;;;;;;;;;;;;;;;;5052126;28;8535;-85
2022/10/18 11:14:10;;;;;;;;;;;;;;;;;;5053468;28;8649;-83
2022/10/18 11:16:49;;;;;;;;;;;;;;;;;;5052677;28;8401;-84
2022/10/18 11:19:33;;;;;;;;;;;;;;;;;;5052204;28;8716;-83
2022/10/18 11:22:03;;;;;;;;;;;;;;;;;;5035824;28;8409;-83
2022/10/18 11:24:29;;;;;;;;;;;;;;;;;;5052591;28;7447;-84
2022/10/18 11:27:06;;;;;;;;;;;;;;;;;;5052228;28;8433;-83
2022/10/18 11:29:52;;;;;;;;;;;;;;;;;;5053383;28;7245;-84
2022/10/18 11:32:29;;;;;;;;;;;;;;;;;;5052023;28;7653;-83
2022/10/18 11:35:18;;;;;;;;;;;;;;;;;;5052465;28;8504;-83
2022/10/18 11:38:04;;;;;;;;;;;;;;;;;;5045977;28;7184;-86
2022/10/18 11:40:47;;;;;;;;;;;;;;;;;;5051259;28;7382;-85
2022/10/18 11:43:25;;;;;;;;;;;;;;;;;;5035293;28;7045;-84
2022/10/18 11:45:57;;;;;;;;;;;;;;;;;;5052937;28;8393;-85
2022/10/18 11:48:38;;;;;;;;;;;;;;;;;;5051669;28;7132;-85
2022/10/18 11:51:03;;;;;;;;;;;;;;;;;;5035506;28;8670;-84
2022/10/18 11:53:48;;;;;;;;;;;;;;;;;;5036213;28;8638;-85
2022/10/18 11:56:37;;;;;;;;;;;;;;;;;;5035267;28;7159;-84
2022/10/18 11:59:22;;;;;;;;;;;;;;;;;;5046244;28;6987;-85
2022/10/18 12:02:02;;;;;;;;;;;;;;;;;;5036151;28;7011;-85
2022/10/18 12:04:37;;;;;;;;;;;;;;;;;;5035649;28;7492;-84
2022/10/18 12:07:06;;;;;;;;;;;;;;;;;;5051098;28;6974;-85
2022/10/18 12:09:41;;;;;;;;;;;;;;;;;;5052123;28;7050;-85
2022/10/18 12:12:14;;;;;;;;;;;;;;;;;;5051430;28;7045;-85
2022/10/18 12:14:40;;;;;;;;;;;;;;;;;;5052226;28;7060;-85
2022/10/18 12:17:12;;;;;;;;;;;;;;;;;;5037538;28;8469;-84
2022/10/18 12:19:40;;;;;;;;;;;;;;;;;;5053296;28;8980;-83
2022/10/18 12:22:20;;;;;;;;;;;;;;;;;;5052020;28;9022;-84
2022/10/18 12:24:45;;;;;;;;;;;;;;;;;;5051180;28;7318;-85
2022/10/18 12:27:14;;;;;;;;;;;;;;;;;;5051434;28;8418;-82
2022/10/18 12:29:39;;;;;;;;;;;;;;;;;;5051235;28;7148;-84
2022/10/18 12:32:10;;;;;;;;;;;;;;;;;;5034630;28;8989;-85
2022/10/18 12:34:56;;;;;;;;;;;;;;;;;;5051135;28;7177;-84
2022/10/18 12:37:32;;;;;;;;;;;;;;;;;;5050428;28;8388;-84
2022/10/18 12:40:11;;;;;;;;;;;;;;;;;;5051722;28;7037;-84
2022/10/18 12:42:42;;;;;;;;;;;;;;;;;;5050543;28;8388;-84
2022/10/18 12:45:26;;;;;;;;;;;;;;;;;;5051437;28;7376;-85
2022/10/18 12:47:54;;;;;;;;;;;;;;;;;;5034529;28;7245;-84
2022/10/18 12:50:31;;;;;;;;;;;;;;;;;;5050898;28;8332;-85
2022/10/18 12:53:02;;;;;;;;;;;;;;;;;;5051620;28;7046;-84
2022/10/18 12:55:30;;;;;;;;;;;;;;;;;;5050194;28;8498;-87
2022/10/18 12:57:55;;;;;;;;;;;;;;;;;;5050285;28;8807;-85
2022/10/18 13:00:30;;;;;;;;;;;;;;;;;;5035048;28;7117;-86
2022/10/18 13:03:10;;;;;;;;;;;;;;;;;;5033972;28;8440;-82
2022/10/18 13:05:49;;;;;;;;;;;;;;;;;;5034060;28;7231;-84
2022/10/18 13:08:30;;;;;;;;;;;;;;;;;;5033937;28;7335;-84
2022/10/18 13:11:08;;;;;;;;;;;;;;;;;;5033803;28;8696;-85
2022/10/18 13:13:43;;;;;;;;;;;;;;;;;;5034342;28;7640;-84
2022/10/18 13:16:29;;;;;;;;;;;;;;;;;;5034075;28;8403;-84
2022/10/18 13:19:07;;;;;;;;;;;;;;;;;;5043122;28;8336;-83
2022/10/18 13:21:33;;;;;;;;;;;;;;;;;;5050046;28;8253;-84
2022/10/18 13:23:58;;;;;;;;;;;;;;;;;;5033635;28;7240;-85
2022/10/18 13:26:33;;;;;;;;;;;;;;;;;;5033777;28;8418;-84
2022/10/18 13:29:17;;;;;;;;;;;;;;;;;;5051021;28;7184;-83
2022/10/18 13:31:48;;;;;;;;;;;;;;;;;;5033564;28;8395;-84
2022/10/18 13:34:23;;;;;;;;;;;;;;;;;;5049994;28;7032;-84
2022/10/18 13:37:14;;;;;;;;;;;;;;;;;;5034594;28;7268;-84
2022/10/18 13:39:40;;;;;;;;;;;;;;;;;;5048027;28;8606;-84
2022/10/18 13:42:28;;;;;;;;;;;;;;;;;;5050040;28;8409;-84
2022/10/18 13:44:53;;;;;;;;;;;;;;;;;;5050625;28;7127;-84
2022/10/18 13:47:42;;;;;;;;;;;;;;;;;;5049918;28;8437;-83
2022/10/18 13:50:24;;;;;;;;;;;;;;;;;;5050494;28;9342;-84
2022/10/18 13:53:17;;;;;;;;;;;;;;;;;;5050647;28;7171;-83
2022/10/18 13:56:02;;;;;;;;;;;;;;;;;;5049918;28;8512;-83
2022/10/18 13:58:27;;;;;;;;;;;;;;;;;;5033456;28;8557;-83
2022/10/18 14:00:59;;;;;;;;;;;;;;;;;;5033552;28;6946;-82
2022/10/18 14:03:40;;;;;;;;;;;;;;;;;;5033019;28;8731;-82
2022/10/18 14:06:15;;;;;;;;;;;;;;;;;;5033045;28;8409;-83
2022/10/18 14:08:45;;;;;;;;;;;;;;;;;;5049745;28;7249;-82
2022/10/18 14:11:34;;;;;;;;;;;;;;;;;;5049407;28;7066;-82
2022/10/18 14:14:07;;;;;;;;;;;;;;;;;;5044561;28;8373;-82
2022/10/18 14:16:42;;;;;;;;;;;;;;;;;;5050226;28;6948;-81
2022/10/18 14:19:18;;;;;;;;;;;;;;;;;;5050104;28;8394;-80
2022/10/18 14:21:50;;;;;;;;;;;;;;;;;;5049679;28;7028;-81
2022/10/18 14:24:19;;;;;;;;;;;;;;;;;;5049472;28;8424;-80
2022/10/18 14:26:45;;;;;;;;;;;;;;;;;;5049986;28;7170;-80
2022/10/18 14:29:18;;;;;;;;;;;;;;;;;;5049861;28;8459;-81
2022/10/18 14:31:54;;;;;;;;;;;;;;;;;;5049406;28;7231;-80
2022/10/18 14:34:21;;;;;;;;;;;;;;;;;;5053209;28;7053;-80
2022/10/18 14:36:48;;;;;;;;;;;;;;;;;;5053356;28;7228;-80
2022/10/18 14:39:19;;;;;;;;;;;;;;;;;;5053551;28;8453;-80
2022/10/18 14:41:49;;;;;;;;;;;;;;;;;;5053603;28;7455;-81
2022/10/18 14:44:14;;;;;;;;;;;;;;;;;;5053385;28;8326;-82
2022/10/18 14:46:44;;;;;;;;;;;;;;;;;;5036294;28;8410;-82
2022/10/18 14:49:11;;;;;;;;;;;;;;;;;;5053022;28;7354;-83
2022/10/18 14:51:39;;;;;;;;;;;;;;;;;;5052933;28;7367;-82
2022/10/18 14:54:06;;;;;;;;;;;;;;;;;;5052609;28;7037;-82
2022/10/18 14:56:37;;;;;;;;;;;;;;;;;;5060158;28;7038;-82
2022/10/18 14:59:10;;;;;;;;;;;;;;;;;;5052965;28;7111;-84
2022/10/18 15:01:35;;;;;;;;;;;;;;;;;;5052560;28;8440;-84
2022/10/18 15:04:08;;;;;;;;;;;;;;;;;;5053057;28;7200;-84
2022/10/18 15:06:34;;;;;;;;;;;;;;;;;;5052775;28;7077;-83
2022/10/18 15:09:03;;;;;;;;;;;;;;;;;;5052786;28;8385;-83
2022/10/18 15:11:29;;;;;;;;;;;;;;;;;;5052422;28;7166;-83
2022/10/18 15:14:07;;;;;;;;;;;;;;;;;;5052460;28;8357;-83
2022/10/18 15:16:34;;;;;;;;;;;;;;;;;;5052030;28;8302;-82
2022/10/18 15:19:01;;;;;;;;;;;;;;;;;;5052738;28;7032;-83
2022/10/18 15:21:27;;;;;;;;;;;;;;;;;;5052493;28;7245;-83
2022/10/18 15:23:54;;;;;;;;;;;;;;;;;;5052537;28;7367;-82
2022/10/18 15:26:26;;;;;;;;;;;;;;;;;;5052185;28;8481;-82
2022/10/18 15:28:55;;;;;;;;;;;;;;;;;;5052025;28;7049;-83
2022/10/18 15:31:41;;;;;;;;;;;;;;;;;;5052728;28;8320;-83
2022/10/18 15:34:10;;;;;;;;;;;;;;;;;;5052677;28;8452;-82
2022/10/18 15:36:36;;;;;;;;;;;;;;;;;;5035547;28;7024;-82
2022/10/18 15:39:07;;;;;;;;;;;;;;;;;;5052220;28;8570;-83
2022/10/18 15:41:37;;;;;;;;;;;;;;;;;;5052257;28;7058;-82
2022/10/18 15:44:27;;;;;;;;;;;;;;;;;;5051794;28;7067;-82
2022/10/18 15:46:55;;;;;;;;;;;;;;;;;;5044739;28;7401;-80
2022/10/18 15:49:23;;;;;;;;;;;;;;;;;;5050707;28;7274;-83
2022/10/18 15:52:11;;;;;;;;;;;;;;;;;;5033962;28;7194;-82
2022/10/18 15:54:37;;;;;;;;;;;;;;;;;;5050631;28;7017;-83
2022/10/18 15:57:09;;;;;;;;;;;;;;;;;;5050653;28;8724;-82
2022/10/18 15:59:45;;;;;;;;;;;;;;;;;;5050382;28;7169;-82
2022/10/18 16:02:13;;;;;;;;;;;;;;;;;;5051136;28;7991;-84
2022/10/18 16:04:38;;;;;;;;;;;;;;;;;;5051908;28;7052;-84
2022/10/18 16:07:04;;;;;;;;;;;;;;;;;;5051719;28;7213;-83
2022/10/18 16:09:29;;;;;;;;;;;;;;;;;;5051775;28;8570;-82
2022/10/18 16:11:55;;;;;;;;;;;;;;;;;;5051915;28;8468;-81
2022/10/18 16:14:21;;;;;;;;;;;;;;;;;;5052294;28;7102;-82
2022/10/18 16:16:50;;;;;;;;;;;;;;;;;;5051402;28;7069;-83
2022/10/18 16:19:25;;;;;;;;;;;;;;;;;;5050745;28;7063;-82
2022/10/18 16:21:52;;;;;;;;;;;;;;;;;;5050972;28;7050;-82
2022/10/18 16:24:18;;;;;;;;;;;;;;;;;;5050105;28;8513;-83
2022/10/18 16:26:43;;;;;;;;;;;;;;;;;;5050123;28;6971;-82
2022/10/18 16:29:14;;;;;;;;;;;;;;;;;;5051192;28;8705;-83
2022/10/18 16:31:39;;;;;;;;;;;;;;;;;;5050678;28;8585;-82
2022/10/18 16:34:05;;;;;;;;;;;;;;;;;;5051023;28;8484;-84
2022/10/18 16:36:32;;;;;;;;;;;;;;;;;;5052291;28;7164;-83
2022/10/18 16:39:01;;;;;;;;;;;;;;;;;;5053190;28;7240;-83
2022/10/18 16:41:27;;;;;;;;;;;;;;;;;;5051012;28;7048;-83
2022/10/18 16:43:53;;;;;;;;;;;;;;;;;;5050773;28;7082;-83
2022/10/18 16:46:26;;;;;;;;;;;;;;;;;;5050994;28;8397;-83
2022/10/18 16:48:52;;;;;;;;;;;;;;;;;;5051583;28;8399;-85
2022/10/18 16:51:19;;;;;;;;;;;;;;;;;;5050997;28;8354;-82
2022/10/18 16:53:45;;;;;;;;;;;;;;;;;;5051141;28;8403;-82
2022/10/18 16:56:13;;;;;;;;;;;;;;;;;;5050060;28;8378;-83
2022/10/18 16:58:39;;;;;;;;;;;;;;;;;;5051447;28;7128;-83
2022/10/18 17:01:04;;;;;;;;;;;;;;;;;;5051390;28;7255;-84
2022/10/18 17:03:30;;;;;;;;;;;;;;;;;;5050667;28;8337;-85
2022/10/18 17:05:55;;;;;;;;;;;;;;;;;;5049196;28;8282;-85
2022/10/18 17:08:25;;;;;;;;;;;;;;;;;;5050089;28;7143;-85
2022/10/18 17:10:53;;;;;;;;;;;;;;;;;;5050601;28;7133;-85
2022/10/18 17:13:19;;;;;;;;;;;;;;;;;;5050406;28;7331;-85
2022/10/18 17:15:45;;;;;;;;;;;;;;;;;;5050485;28;8469;-84
2022/10/18 17:18:15;;;;;;;;;;;;;;;;;;5050656;28;8331;-85
2022/10/18 17:20:42;;;;;;;;;;;;;;;;;;5050677;28;7155;-84
2022/10/18 17:23:08;;;;;;;;;;;;;;;;;;5050971;28;8389;-85
2022/10/18 17:25:38;;;;;;;;;;;;;;;;;;5050540;28;8657;-84
2022/10/18 17:28:05;;;;;;;;;;;;;;;;;;5034564;28;7214;-86